Hovedside
METAR-TAF:

METAR-TAF

Lufthavner :

Kronoby lufthavn

Karleby, Finland

breddegrad: 63-43N, lengdegrad: 023-09E, høyde over havet: 25 m

Gjeldene værobservasjon

Denne rapporten ble laget for 12 minutter siden, klokken 12:20 UTC
Vind 6 kt fra Nord-nordøst, skiftende mellom Nordvest og Øst
Temperatur 18°C
Luftfuktighet 49%
Trykk 1017 hPa
Sikt 10 km eller mer
ingen skyer under 1500 m og ingen bygeskyer

METAR: EFKK 191220Z AUTO 02006KT 320V080 CAVOK 18/07 Q1017

Tid: 15:32 (12:32 UTC)

Varsel

Denne rapporten ble laget for 7 timer og 6 minutter siden, klokken 05:26 UTC
Varsel gyldig fra 19. klokken 06 UTC til 19. klokken 09 UTC
Vind 9 kt fra Vest-nordvest
Sikt 10 km eller mer
ingen skyer under 1500 m og ingen bygeskyer

TAF: EFKK 190526Z 1906/1909 30009KT CAVOK

Værobservasjoner og værvarsel for over 4000 flyplasser (METAR- og TAF-rapporter).

Tilgjengelige stasjoner er representert av de røde og gule prikkene på kartet.

Hold musepekeren over prikken for å se navnet på stasjonen.

Klikk så for å se værobservasjoner og -varsler.

For å forandre kartet kan du klikke på den grønne knappen med svart kryss for å zoome inn, på den grønne knappen med strek for å zoome ut, eller på de grønne pilene for å se tilstøtende kart.


METAR-TAF: